Time;durP1;ratioP1;P1;durP2;ratioP2;P2;SDS_P1;SDS_P2;PMS_P1;PMS_P2;Temp;Humidity;BMP_temperature;BMP_pressure;BME280_temperature;BME280_humidity;BME280_pressure;Samples;Min_cycle;Max_cycle;Signal;HPM_P1;HPM_P2
2021/04/03 00:02:20;;;;;;;9.80;4.18;;;;;;;6.25;84.62;100926.03;3553079;32;20073;-41
2021/04/03 00:04:47;;;;;;;7.47;4.68;;;;;;;6.21;84.53;100923.28;3552657;32;20058;-40
2021/04/03 00:07:14;;;;;;;13.05;4.07;;;;;;;6.27;84.90;100921.88;3551745;32;20069;-42
2021/04/03 00:09:41;;;;;;;7.25;4.43;;;;;;;6.16;84.88;100920.53;3553383;32;20376;-44
2021/04/03 00:12:09;;;;;;;8.63;4.35;;;;;;;5.99;86.08;100918.84;3554652;32;20168;-45
2021/04/03 00:14:36;;;;;;;7.43;4.00;;;;;;;6.13;84.11;100917.84;3552706;32;20105;-41
2021/04/03 00:17:02;;;;;;;8.13;4.22;;;;;;;5.75;86.12;100919.38;3553543;32;20077;-43
2021/04/03 00:19:29;;;;;;;8.93;4.60;;;;;;;5.74;86.11;100926.94;3552251;32;20062;-42
2021/04/03 00:21:55;;;;;;;9.98;4.55;;;;;;;6.15;83.82;100913.72;3552687;32;20486;-41
2021/04/03 00:24:22;;;;;;;8.82;4.60;;;;;;;5.82;85.05;100916.34;3552292;32;20443;-45
2021/04/03 00:26:48;;;;;;;11.45;4.70;;;;;;;5.52;86.30;100925.88;3552196;32;20388;-44
2021/04/03 00:29:15;;;;;;;10.63;5.50;;;;;;;5.59;86.18;100927.03;3553495;32;20061;-43
2021/04/03 00:31:41;;;;;;;9.63;4.70;;;;;;;5.36;86.96;100924.25;3553635;32;20141;-40
2021/04/03 00:34:08;;;;;;;14.75;5.80;;;;;;;5.35;87.53;100921.63;3554527;32;20062;-40
2021/04/03 00:36:34;;;;;;;7.05;4.47;;;;;;;5.28;87.22;100919.59;3552728;32;20062;-42
2021/04/03 00:39:01;;;;;;;10.05;5.15;;;;;;;5.07;88.16;100930.38;3553911;32;20058;-46
2021/04/03 00:41:28;;;;;;;8.40;3.97;;;;;;;5.18;88.42;100933.47;3549920;32;20077;-44
2021/04/03 00:43:54;;;;;;;12.93;4.80;;;;;;;5.33;86.30;100921.56;3553396;32;20058;-40
2021/04/03 00:46:21;;;;;;;11.20;4.65;;;;;;;5.31;86.54;100918.03;3553146;32;20062;-43
2021/04/03 00:48:48;;;;;;;9.75;4.70;;;;;;;5.20;86.67;100913.22;3553448;32;20078;-43
2021/04/03 00:51:14;;;;;;;7.93;4.32;;;;;;;5.16;86.41;100904.59;3550503;32;20070;-46
2021/04/03 00:53:41;;;;;;;10.30;4.82;;;;;;;4.89;88.30;100913.31;3552594;32;20058;-42
2021/04/03 00:56:08;;;;;;;12.82;4.97;;;;;;;4.78;88.31;100918.72;3551496;32;20070;-41
2021/04/03 00:58:35;;;;;;;10.93;5.07;;;;;;;4.66;89.22;100918.06;3552896;32;20062;-40
2021/04/03 01:01:03;;;;;;;13.27;5.78;;;;;;;4.74;89.52;100923.53;3553127;32;20431;-47
2021/04/03 01:03:30;;;;;;;9.82;4.60;;;;;;;4.94;87.59;100927.13;3549421;32;20410;-46
2021/04/03 01:05:57;;;;;;;7.38;4.40;;;;;;;4.77;88.66;100928.78;3553034;32;20474;-43
2021/04/03 01:08:23;;;;;;;9.23;4.53;;;;;;;4.72;88.37;100927.69;3553079;32;20073;-45
2021/04/03 01:10:54;;;;;;;8.82;4.70;;;;;;;4.58;89.61;100930.34;3552687;32;20072;-42
2021/04/03 01:13:43;;;;;;;11.90;5.30;;;;;;;4.61;89.39;100927.09;3553343;32;20080;-41
2021/04/03 01:16:32;;;;;;;11.32;4.32;;;;;;;4.59;88.57;100938.84;3551731;32;20079;-41
2021/04/03 01:19:34;;;;;;;12.35;4.68;;;;;;;4.64;88.89;100932.34;3553589;32;20155;-41
2021/04/03 01:22:30;;;;;;;9.38;4.53;;;;;;;4.52;89.08;100936.75;3550191;32;20057;-41
2021/04/03 01:25:19;;;;;;;10.77;4.60;;;;;;;4.67;88.07;100942.66;3542688;32;20058;-42
2021/04/03 01:28:05;;;;;;;11.35;4.55;;;;;;;4.44;89.33;100940.56;3549349;32;20062;-42
2021/04/03 01:30:33;;;;;;;;;;;;;;;4.48;89.65;100944.97;3548499;32;20142;-40
2021/04/03 01:33:06;;;;;;;15.38;4.30;;;;;;;4.71;88.15;100949.59;3553715;32;19940;-43
2021/04/03 01:35:40;;;;;;;9.43;4.38;;;;;;;4.49;89.23;100952.69;3547548;32;20060;-41
2021/04/03 01:38:15;;;;;;;8.23;4.03;;;;;;;4.41;90.32;100943.78;3554165;32;20058;-40
2021/04/03 01:40:44;;;;;;;8.80;4.47;;;;;;;4.53;88.57;100957.13;3552418;32;20066;-41
2021/04/03 01:43:20;;;;;;;13.60;5.20;;;;;;;4.31;89.80;100950.00;3554495;32;20108;-42
2021/04/03 01:45:49;;;;;;;11.25;4.88;;;;;;;4.48;88.60;100953.44;3553089;32;20062;-40
2021/04/03 01:48:18;;;;;;;9.60;5.30;;;;;;;4.59;88.66;100952.38;3550343;32;20058;-43
2021/04/03 01:50:46;;;;;;;12.13;5.32;;;;;;;4.18;89.82;100949.25;3552487;32;20125;-42
2021/04/03 01:53:13;;;;;;;10.38;4.72;;;;;;;4.44;89.25;100948.16;3548188;32;20065;-41
2021/04/03 01:55:41;;;;;;;11.57;4.85;;;;;;;4.13;90.43;100950.66;3552018;32;20466;-40
2021/04/03 01:58:10;;;;;;;10.90;4.90;;;;;;;4.28;89.89;100961.63;3553511;32;20077;-44
2021/04/03 02:00:38;;;;;;;10.60;4.72;;;;;;;4.20;89.49;100961.19;3552485;32;20058;-42
2021/04/03 02:03:06;;;;;;;9.85;4.60;;;;;;;4.09;90.73;100960.63;3552904;32;20062;-41
2021/04/03 02:05:34;;;;;;;8.48;4.82;;;;;;;4.11;90.45;100963.22;3551946;32;20054;-41
2021/04/03 02:08:01;;;;;;;13.00;5.03;;;;;;;3.89;92.04;100970.44;3550389;32;20066;-40
2021/04/03 02:10:30;;;;;;;13.98;5.22;;;;;;;4.04;91.62;100971.28;3549883;32;20054;-44
2021/04/03 02:13:00;;;;;;;12.77;5.30;;;;;;;3.98;91.15;100966.75;3552409;32;20062;-43
2021/04/03 02:15:28;;;;;;;14.18;5.80;;;;;;;3.71;92.53;100972.78;3553084;32;20062;-47
2021/04/03 02:17:56;;;;;;;8.80;4.97;;;;;;;3.72;93.09;100972.84;3553897;32;20076;-46
2021/04/03 02:20:24;;;;;;;13.23;4.60;;;;;;;3.66;92.83;100972.50;3552193;32;20156;-42
2021/04/03 02:22:51;;;;;;;13.60;6.55;;;;;;;3.61;92.76;100970.50;3552389;32;20092;-41
2021/04/03 02:25:18;;;;;;;8.48;4.95;;;;;;;3.46;93.69;100978.94;3552161;32;20065;-43
2021/04/03 02:27:46;;;;;;;11.02;5.40;;;;;;;3.37;94.17;100975.00;3551765;32;20136;-45
2021/04/03 02:30:16;;;;;;;13.38;4.75;;;;;;;3.42;93.70;100982.09;3547499;32;20072;-44
2021/04/03 02:32:49;;;;;;;9.60;4.50;;;;;;;3.41;94.01;100989.56;3550838;32;20073;-40
2021/04/03 02:35:18;;;;;;;15.43;5.13;;;;;;;3.34;94.31;100993.41;3550467;32;20073;-43
2021/04/03 02:37:47;;;;;;;9.80;5.20;;;;;;;3.38;94.32;100989.41;3551563;32;20137;-43
2021/04/03 02:40:17;;;;;;;13.00;5.60;;;;;;;3.32;93.71;100995.84;3551545;32;20072;-44
2021/04/03 02:42:49;;;;;;;10.63;5.00;;;;;;;3.50;93.47;100995.19;3551824;32;20073;-40
2021/04/03 02:45:19;;;;;;;13.38;5.20;;;;;;;3.26;93.84;100987.03;3545518;32;20410;-47
2021/04/03 02:47:48;;;;;;;10.70;5.72;;;;;;;3.40;93.67;100992.91;3553136;32;20280;-40
2021/04/03 02:50:22;;;;;;;13.55;5.75;;;;;;;3.43;93.31;100998.16;3551906;32;20338;-39
2021/04/03 02:52:52;;;;;;;9.95;5.28;;;;;;;3.11;94.03;100998.75;3552415;32;20058;-40
2021/04/03 02:55:24;;;;;;;9.05;5.22;;;;;;;3.03;94.88;101004.22;3552878;32;20066;-42
2021/04/03 02:57:52;;;;;;;14.85;5.75;;;;;;;3.09;95.16;100998.66;3552376;32;20069;-42
2021/04/03 03:00:21;;;;;;;8.57;4.53;;;;;;;3.25;94.43;101008.06;3549561;32;20416;-41
2021/04/03 03:02:50;;;;;;;11.02;4.75;;;;;;;3.03;94.52;101000.81;3551660;32;20058;-43
2021/04/03 03:05:18;;;;;;;10.75;4.82;;;;;;;3.36;93.70;101007.03;3552608;32;20065;-46
2021/04/03 03:07:47;;;;;;;11.38;5.35;;;;;;;3.23;93.49;101005.41;3552233;32;20085;-41
2021/04/03 03:10:15;;;;;;;9.02;5.03;;;;;;;3.31;93.22;101006.75;3550661;32;20062;-41
2021/04/03 03:12:44;;;;;;;13.18;5.57;;;;;;;3.17;93.85;101002.53;3551763;32;20418;-44
2021/04/03 03:15:14;;;;;;;9.90;4.80;;;;;;;3.06;94.39;101004.41;3552869;32;20423;-44
2021/04/03 03:17:45;;;;;;;10.32;5.10;;;;;;;2.90;94.81;101021.06;3551333;32;20083;-46
2021/04/03 03:20:13;;;;;;;10.88;4.97;;;;;;;2.99;94.88;101030.09;3552218;32;20387;-40
2021/04/03 03:22:44;;;;;;;12.90;4.90;;;;;;;2.94;94.64;101025.56;3551139;32;20132;-43
2021/04/03 03:25:10;;;;;;;13.35;5.38;;;;;;;2.87;95.25;101023.44;3551963;32;20066;-43
2021/04/03 03:27:40;;;;;;;11.50;5.32;;;;;;;2.98;94.61;101025.84;3551400;32;20092;-42
2021/04/03 03:30:08;;;;;;;10.38;4.78;;;;;;;2.90;95.19;101021.94;3551997;32;20058;-43
2021/04/03 03:32:36;;;;;;;12.80;5.20;;;;;;;2.76;95.56;101033.75;3551193;32;20076;-42
2021/04/03 03:35:04;;;;;;;10.02;5.97;;;;;;;2.80;95.69;101029.75;3552065;32;20410;-39
2021/04/03 03:37:31;;;;;;;12.38;5.80;;;;;;;2.74;95.62;101022.66;3552831;32;20072;-43
2021/04/03 03:39:58;;;;;;;11.90;5.80;;;;;;;2.74;95.78;101034.44;3553722;32;20085;-41
2021/04/03 03:42:26;;;;;;;13.18;6.40;;;;;;;2.87;94.69;101036.09;3552941;32;20058;-41
2021/04/03 03:44:53;;;;;;;9.82;5.97;;;;;;;2.90;94.93;101041.31;3551472;32;20343;-43
2021/04/03 03:47:20;;;;;;;11.65;5.32;;;;;;;2.68;95.87;101047.59;3552891;32;20066;-40
2021/04/03 03:49:47;;;;;;;13.38;5.00;;;;;;;2.77;96.01;101038.03;3554080;32;20115;-48
2021/04/03 03:52:14;;;;;;;11.70;4.78;;;;;;;2.76;95.36;101042.97;3555272;32;20070;-44
2021/04/03 03:54:41;;;;;;;10.85;5.57;;;;;;;2.67;95.93;101045.81;3553249;32;20062;-43
2021/04/03 03:57:07;;;;;;;12.18;5.57;;;;;;;2.66;95.96;101044.06;3555273;32;20073;-42
2021/04/03 03:59:34;;;;;;;13.77;5.75;;;;;;;2.54;97.19;101056.81;3553665;32;20211;-42
2021/04/03 04:02:01;;;;;;;12.27;5.85;;;;;;;2.55;96.83;101048.44;3554069;32;20077;-41
2021/04/03 04:04:27;;;;;;;9.80;5.70;;;;;;;2.51;96.49;101048.16;3550939;32;20073;-39
2021/04/03 04:06:54;;;;;;;14.82;6.05;;;;;;;2.37;97.25;101054.88;3554092;32;20308;-39
2021/04/03 04:09:20;;;;;;;11.48;5.97;;;;;;;2.25;98.08;101049.88;3554148;32;20069;-44
2021/04/03 04:11:47;;;;;;;12.80;5.72;;;;;;;2.30;98.21;101051.03;3552828;32;20072;-43
2021/04/03 04:14:13;;;;;;;15.43;6.35;;;;;;;2.41;97.17;101051.75;3552873;32;20279;-42
2021/04/03 04:16:40;;;;;;;13.55;6.28;;;;;;;2.78;96.57;101059.16;3553528;32;20061;-45
2021/04/03 04:19:06;;;;;;;11.93;5.63;;;;;;;2.60;96.14;101053.78;3553473;32;20077;-40
2021/04/03 04:21:33;;;;;;;14.75;6.28;;;;;;;2.60;97.26;101047.88;3553569;32;20292;-42
2021/04/03 04:24:00;;;;;;;15.45;6.20;;;;;;;2.55;97.25;101052.63;3547326;32;20295;-40
2021/04/03 04:26:26;;;;;;;13.38;6.22;;;;;;;2.36;97.56;101050.59;3553177;32;20285;-39
2021/04/03 04:28:53;;;;;;;14.30;5.72;;;;;;;2.42;96.97;101060.22;3553072;32;20382;-41
2021/04/03 04:31:19;;;;;;;13.50;6.22;;;;;;;2.57;96.88;101053.59;3553265;32;20066;-46
2021/04/03 04:33:46;;;;;;;12.88;5.90;;;;;;;2.84;94.90;101063.69;3552839;32;20323;-42
2021/04/03 04:36:13;;;;;;;13.95;6.40;;;;;;;2.50;96.26;101064.97;3551832;32;20402;-44
2021/04/03 04:38:39;;;;;;;15.93;6.82;;;;;;;2.57;96.33;101058.66;3553236;32;20126;-41
2021/04/03 04:41:06;;;;;;;11.88;5.72;;;;;;;2.39;96.49;101053.28;3554182;32;20062;-40
2021/04/03 04:43:32;;;;;;;15.70;6.35;;;;;;;2.50;96.87;101057.41;3553588;32;20073;-40
2021/04/03 04:46:00;;;;;;;16.00;6.35;;;;;;;2.64;96.01;101058.28;3553372;32;20089;-40
2021/04/03 04:48:26;;;;;;;12.07;5.88;;;;;;;2.27;96.70;101060.97;3553228;32;20080;-40
2021/04/03 04:50:53;;;;;;;16.15;6.88;;;;;;;2.35;97.82;101060.56;3553129;32;20093;-40
2021/04/03 04:53:19;;;;;;;13.77;6.40;;;;;;;2.37;97.38;101072.56;3553419;32;20061;-45
2021/04/03 04:55:46;;;;;;;16.17;7.45;;;;;;;2.15;97.85;101079.50;3553110;32;20062;-41
2021/04/03 04:58:12;;;;;;;17.15;7.38;;;;;;;2.05;99.04;101088.13;3548521;32;20062;-43
2021/04/03 05:00:39;;;;;;;17.02;7.07;;;;;;;1.93;99.51;101093.22;3552257;32;20082;-41
2021/04/03 05:03:05;;;;;;;16.83;7.53;;;;;;;2.12;100.00;101097.84;3553999;32;20074;-47
2021/04/03 05:05:32;;;;;;;18.77;7.70;;;;;;;2.66;97.78;101088.69;3553692;32;20307;-45
2021/04/03 05:07:58;;;;;;;17.45;7.57;;;;;;;2.52;96.75;101091.22;3554257;32;20053;-42
2021/04/03 05:10:25;;;;;;;14.68;8.00;;;;;;;2.30;97.32;101095.66;3553073;32;20149;-43
2021/04/03 05:12:51;;;;;;;14.05;7.13;;;;;;;2.48;97.88;101099.38;3553644;32;20054;-40
2021/04/03 05:15:18;;;;;;;20.33;7.80;;;;;;;2.40;98.14;101095.47;3554040;32;20414;-43
2021/04/03 05:17:45;;;;;;;18.58;7.70;;;;;;;2.47;97.97;101101.81;3553962;32;20172;-41
2021/04/03 05:20:12;;;;;;;15.95;7.45;;;;;;;2.62;97.45;101101.91;3554159;32;20076;-40
2021/04/03 05:22:38;;;;;;;19.45;8.40;;;;;;;2.45;98.24;101101.72;3552883;32;20062;-42
2021/04/03 05:25:05;;;;;;;15.13;7.28;;;;;;;2.38;98.17;101114.72;3553539;32;20076;-43
2021/04/03 05:27:32;;;;;;;15.65;7.88;;;;;;;2.50;98.59;101113.00;3552371;32;20062;-42
2021/04/03 05:29:58;;;;;;;15.35;7.65;;;;;;;2.45;98.31;101124.47;3552855;32;20101;-42
2021/04/03 05:32:25;;;;;;;18.42;6.57;;;;;;;2.84;98.24;101124.41;3552428;32;20078;-47
2021/04/03 05:34:51;;;;;;;15.98;6.95;;;;;;;2.87;96.13;101117.00;3552153;32;20058;-40
2021/04/03 05:37:18;;;;;;;18.13;7.32;;;;;;;2.77;96.66;101121.50;3552598;32;20081;-41
2021/04/03 05:39:45;;;;;;;18.38;7.07;;;;;;;2.75;97.08;101132.28;3548364;32;20062;-40
2021/04/03 05:42:18;;;;;;;14.63;7.35;;;;;;;2.68;97.63;101136.06;3546294;32;20061;-40
2021/04/03 05:44:46;;;;;;;15.88;7.20;;;;;;;2.87;96.79;101143.19;3551783;32;20081;-39
2021/04/03 05:47:14;;;;;;;13.98;7.38;;;;;;;2.78;96.43;101137.53;3552630;32;20057;-41
2021/04/03 05:49:41;;;;;;;16.45;7.68;;;;;;;3.26;95.24;101151.50;3552633;32;20069;-43
2021/04/03 05:52:08;;;;;;;15.57;7.03;;;;;;;3.12;94.91;101148.13;3553421;32;20613;-39
2021/04/03 05:54:37;;;;;;;15.95;6.93;;;;;;;3.36;94.28;101155.50;3551662;32;20073;-40
2021/04/03 05:57:08;;;;;;;17.35;7.78;;;;;;;3.25;94.49;101150.63;3552629;32;20366;-43
2021/04/03 05:59:35;;;;;;;16.08;6.97;;;;;;;3.45;93.99;101154.41;3552110;32;20073;-41
2021/04/03 06:02:05;;;;;;;14.77;6.55;;;;;;;3.40;93.73;101160.84;3552968;32;20081;-44
2021/04/03 06:04:33;;;;;;;12.85;6.35;;;;;;;3.96;91.63;101160.88;3539845;32;20057;-42
2021/04/03 06:07:00;;;;;;;10.23;5.38;;;;;;;3.93;91.21;101163.25;3555826;32;20279;-39
2021/04/03 06:09:29;;;;;;;11.35;5.18;;;;;;;4.34;89.44;101163.13;3553177;32;20093;-39
2021/04/03 06:11:55;;;;;;;8.63;4.45;;;;;;;4.53;86.58;101161.63;3550684;32;20100;-39
2021/04/03 06:14:23;;;;;;;8.32;4.82;;;;;;;4.82;87.10;101174.34;3552457;32;20065;-43
2021/04/03 06:16:52;;;;;;;8.00;4.50;;;;;;;4.89;85.22;101177.22;3555809;32;20086;-43
2021/04/03 06:19:23;;;;;;;6.93;3.97;;;;;;;5.16;84.54;101183.81;3550730;32;20387;-44
2021/04/03 06:21:53;;;;;;;12.82;4.38;;;;;;;5.50;82.65;101185.66;3552634;32;20072;-42
2021/04/03 06:24:35;;;;;;;9.07;4.32;;;;;;;5.55;81.71;101181.72;3551267;32;20080;-38
2021/04/03 06:27:06;;;;;;;8.35;4.25;;;;;;;5.77;81.25;101188.78;3575180;32;20071;-45
2021/04/03 06:29:36;;;;;;;6.65;3.22;;;;;;;6.08;78.87;101189.63;3586278;32;20079;-48
2021/04/03 06:32:07;;;;;;;8.98;4.55;;;;;;;6.40;77.93;101203.13;3586126;32;20060;-45
2021/04/03 06:34:40;;;;;;;6.45;3.47;;;;;;;6.47;76.40;101209.38;3584499;32;20060;-41
2021/04/03 06:37:11;;;;;;;7.18;3.60;;;;;;;6.31;76.58;101200.13;3587845;32;20530;-47
2021/04/03 06:39:53;;;;;;;8.82;4.05;;;;;;;6.21;76.56;101210.63;3589605;32;20083;-45
2021/04/03 06:42:40;;;;;;;8.93;3.75;;;;;;;6.08;77.60;101215.06;3582984;32;20060;-48
2021/04/03 06:45:23;;;;;;;6.13;3.63;;;;;;;7.25;73.95;101219.19;3589636;32;20533;-43
2021/04/03 06:47:56;;;;;;;5.35;3.30;;;;;;;9.00;65.55;101225.22;3589646;32;20154;-48
2021/04/03 06:50:26;;;;;;;8.05;3.33;;;;;;;10.60;61.81;101234.66;3589196;32;20363;-47
2021/04/03 06:52:54;;;;;;;6.72;2.92;;;;;;;11.51;56.78;101233.31;3587982;32;20091;-45
2021/04/03 06:55:22;;;;;;;4.18;2.13;;;;;;;11.30;54.93;101244.66;3589885;32;20083;-44
2021/04/03 06:57:52;;;;;;;4.30;2.30;;;;;;;11.91;52.40;101238.84;3589544;32;20077;-44
2021/04/03 07:00:19;;;;;;;2.72;2.20;;;;;;;12.24;50.61;101236.34;3588737;32;20052;-44
2021/04/03 07:02:56;;;;;;;8.52;2.97;;;;;;;11.73;51.48;101239.13;3589590;32;20056;-51
2021/04/03 07:05:24;;;;;;;4.40;2.17;;;;;;;12.51;48.97;101249.91;3586348;32;20075;-45
2021/04/03 07:07:54;;;;;;;3.85;2.05;;;;;;;12.32;49.04;101238.28;3590170;32;20480;-44
2021/04/03 07:10:20;;;;;;;3.97;2.72;;;;;;;12.73;48.04;101247.06;3591507;32;20079;-48
2021/04/03 07:12:49;;;;;;;4.70;2.20;;;;;;;12.20;49.68;101237.13;3586838;32;20072;-45
2021/04/03 07:15:16;;;;;;;3.45;2.10;;;;;;;13.30;46.60;101249.38;3591354;32;20064;-49
2021/04/03 07:17:44;;;;;;;3.20;1.90;;;;;;;13.37;44.28;101248.69;3591751;32;20106;-50
2021/04/03 07:20:16;;;;;;;3.45;2.08;;;;;;;13.88;44.27;101250.69;3584459;32;20095;-45
2021/04/03 07:22:46;;;;;;;5.55;2.35;;;;;;;12.41;47.03;101257.38;3586283;32;20156;-46
2021/04/03 07:25:15;;;;;;;3.42;1.77;;;;;;;14.11;44.40;101255.44;3587867;32;20064;-46
2021/04/03 07:27:46;;;;;;;4.43;1.80;;;;;;;15.47;40.39;101255.25;3593280;32;20084;-43
2021/04/03 07:30:33;;;;;;;2.08;1.60;;;;;;;15.35;38.95;101265.41;3590176;32;20064;-43
2021/04/03 07:33:17;;;;;;;2.92;1.73;;;;;;;13.92;41.58;101264.50;3587238;32;20153;-43
2021/04/03 07:35:49;;;;;;;4.15;1.90;;;;;;;12.00;45.66;101256.22;3584513;32;20346;-43
2021/04/03 07:38:23;;;;;;;4.50;1.50;;;;;;;12.66;42.39;101265.72;3590228;32;20071;-42
2021/04/03 07:40:55;;;;;;;1.60;1.17;;;;;;;11.66;44.25;101255.19;3592826;32;20079;-49
2021/04/03 07:43:37;;;;;;;3.17;1.50;;;;;;;12.51;42.67;101271.31;3590988;32;20075;-46
2021/04/03 07:46:05;;;;;;;2.10;1.63;;;;;;;12.38;43.21;101269.25;3588158;32;20138;-45
2021/04/03 07:48:38;;;;;;;4.30;1.83;;;;;;;11.79;44.79;101264.13;3590682;32;20375;-43
2021/04/03 07:51:06;;;;;;;2.85;1.42;;;;;;;10.69;46.90;101264.00;3589434;32;20281;-44
2021/04/03 07:53:47;;;;;;;3.53;1.47;;;;;;;9.83;50.19;101269.38;3589740;32;20066;-43
2021/04/03 07:56:18;;;;;;;6.68;1.52;;;;;;;9.60;52.04;101263.38;3591608;32;20060;-44
2021/04/03 07:58:56;;;;;;;4.10;1.40;;;;;;;9.33;50.11;101269.13;3590625;32;20067;-44
2021/04/03 08:01:45;;;;;;;2.83;1.55;;;;;;;9.88;50.03;101271.28;3587930;32;20079;-43
2021/04/03 08:04:11;;;;;;;2.20;1.23;;;;;;;9.77;48.40;101274.25;3592379;32;20060;-44
2021/04/03 08:06:42;;;;;;;6.88;1.60;;;;;;;9.26;49.22;101276.53;3588433;32;20080;-42
2021/04/03 08:09:16;;;;;;;1.77;0.93;;;;;;;9.52;49.25;101273.31;3593417;32;20065;-44
2021/04/03 08:11:44;;;;;;;5.57;1.00;;;;;;;8.93;47.94;101272.66;3594912;32;20282;-45
2021/04/03 08:14:12;;;;;;;4.20;1.17;;;;;;;9.42;48.56;101278.84;3591876;32;20060;-44
2021/04/03 08:16:40;;;;;;;1.42;0.82;;;;;;;9.42;47.51;101272.06;3590181;32;20057;-43
2021/04/03 08:19:08;;;;;;;3.08;0.88;;;;;;;9.19;45.51;101267.72;3590544;32;20060;-44
2021/04/03 08:21:44;;;;;;;2.60;1.30;;;;;;;10.06;44.46;101286.44;3589392;32;20060;-45
2021/04/03 08:24:11;;;;;;;3.13;0.90;;;;;;;10.05;42.45;101282.16;3589837;32;20060;-44
2021/04/03 08:26:43;;;;;;;3.30;0.50;;;;;;;10.07;41.58;101275.41;3589506;32;20071;-44
2021/04/03 08:29:32;;;;;;;2.05;0.77;;;;;;;10.25;42.45;101285.47;3589023;32;20064;-43
2021/04/03 08:32:00;;;;;;;0.90;0.60;;;;;;;10.80;42.12;101292.56;3590469;32;20064;-47
2021/04/03 08:34:27;;;;;;;2.22;0.93;;;;;;;10.93;41.04;101289.59;3590298;32;20313;-42
2021/04/03 08:36:54;;;;;;;0.93;0.70;;;;;;;11.84;39.61;101283.13;3590224;32;20075;-45
2021/04/03 08:39:23;;;;;;;1.75;0.80;;;;;;;12.02;38.74;101295.63;3592283;32;20070;-43
2021/04/03 08:41:52;;;;;;;4.28;0.77;;;;;;;11.24;41.29;101288.06;3590176;32;20079;-42
2021/04/03 08:44:26;;;;;;;2.55;0.60;;;;;;;9.90;40.80;101279.91;3590319;32;20064;-42
2021/04/03 08:47:01;;;;;;;4.55;0.80;;;;;;;9.51;43.28;101292.00;3591689;32;20064;-42
2021/04/03 08:49:37;;;;;;;2.23;0.70;;;;;;;9.35;43.47;101293.09;3591928;32;20083;-45
2021/04/03 08:52:06;;;;;;;1.75;0.70;;;;;;;9.83;42.67;101289.84;3590470;32;20644;-44
2021/04/03 08:54:38;;;;;;;1.35;0.60;;;;;;;9.55;42.93;101290.44;3589673;32;20064;-42
2021/04/03 08:57:25;;;;;;;1.38;0.60;;;;;;;9.86;42.22;101292.53;3587609;32;20158;-43
2021/04/03 08:59:53;;;;;;;0.80;0.50;;;;;;;9.68;42.33;101285.00;3590121;32;20066;-45
2021/04/03 09:02:20;;;;;;;2.10;0.88;;;;;;;9.88;40.75;101289.19;3590017;32;20444;-43
2021/04/03 09:04:47;;;;;;;1.10;0.52;;;;;;;9.78;39.96;101296.47;3590880;32;20068;-46
2021/04/03 09:07:33;;;;;;;1.25;0.60;;;;;;;10.67;41.14;101290.38;3590579;32;20061;-45
2021/04/03 09:10:08;;;;;;;1.05;0.82;;;;;;;10.73;41.12;101289.75;3590567;32;20309;-45
2021/04/03 09:12:36;;;;;;;1.63;0.63;;;;;;;10.86;42.85;101297.91;3587515;32;20075;-47
2021/04/03 09:15:06;;;;;;;3.92;0.80;;;;;;;10.65;42.81;101294.59;3589553;32;20163;-43
2021/04/03 09:17:33;;;;;;;2.75;0.60;;;;;;;10.42;42.85;101306.56;3587313;32;20056;-44
2021/04/03 09:20:13;;;;;;;2.97;0.68;;;;;;;10.36;43.53;101306.38;3590006;32;20076;-43
2021/04/03 09:22:41;;;;;;;2.55;0.85;;;;;;;10.59;43.87;101310.63;3587903;32;20358;-45
2021/04/03 09:25:09;;;;;;;3.95;0.68;;;;;;;10.83;42.68;101297.78;3591098;32;20072;-45
2021/04/03 09:27:36;;;;;;;1.98;0.70;;;;;;;10.88;43.30;101309.06;3590518;32;20067;-45
2021/04/03 09:30:06;;;;;;;1.52;0.60;;;;;;;11.37;41.71;101304.69;3590819;32;20060;-47
2021/04/03 09:32:46;;;;;;;1.73;0.60;;;;;;;12.30;41.18;101317.84;3586809;32;20800;-44
2021/04/03 09:35:21;;;;;;;3.45;0.90;;;;;;;11.38;41.38;101312.44;3589682;32;20139;-45
2021/04/03 09:38:03;;;;;;;5.15;0.90;;;;;;;11.34;42.10;101328.56;3590361;32;20056;-46
2021/04/03 09:40:46;;;;;;;1.33;0.70;;;;;;;10.63;42.27;101320.16;3587569;32;20075;-45
2021/04/03 09:43:15;;;;;;;1.48;0.65;;;;;;;10.78;42.90;101324.94;3589662;32;20056;-46
2021/04/03 09:45:43;;;;;;;1.13;0.70;;;;;;;10.39;43.03;101320.13;3590782;32;20056;-47
2021/04/03 09:48:13;;;;;;;2.13;0.60;;;;;;;10.61;43.90;101336.28;3586881;32;20075;-48
2021/04/03 09:50:41;;;;;;;1.15;0.50;;;;;;;10.55;44.18;101330.94;3589638;32;20147;-43
2021/04/03 09:53:16;;;;;;;1.23;0.47;;;;;;;10.51;43.33;101326.53;3589997;32;20067;-44
2021/04/03 09:55:43;;;;;;;;;;;;;;;10.36;44.38;101329.41;3589936;32;20180;-43
2021/04/03 09:58:09;;;;;;;1.88;0.60;;;;;;;10.48;44.73;101324.72;3588788;32;19928;-43
2021/04/03 10:00:36;;;;;;;3.83;1.00;;;;;;;10.35;45.74;101320.84;3589273;32;20060;-45
2021/04/03 10:03:04;;;;;;;2.55;0.85;;;;;;;10.35;44.93;101322.53;3589387;32;20076;-46
2021/04/03 10:05:30;;;;;;;2.00;0.95;;;;;;;10.00;45.77;101323.75;3586694;32;20088;-45
2021/04/03 10:07:57;;;;;;;3.20;0.80;;;;;;;11.32;45.90;101327.59;3590178;32;20064;-44
2021/04/03 10:10:24;;;;;;;2.50;1.05;;;;;;;12.93;40.38;101335.84;3589058;32;20083;-45
2021/04/03 10:12:51;;;;;;;1.58;0.65;;;;;;;12.61;40.54;101334.97;3590541;32;20075;-48
2021/04/03 10:15:18;;;;;;;4.10;0.90;;;;;;;11.36;42.51;101329.47;3589519;32;20064;-46
2021/04/03 10:17:44;;;;;;;1.08;0.52;;;;;;;11.51;41.77;101335.91;3587135;32;20072;-46
2021/04/03 10:20:12;;;;;;;1.85;0.50;;;;;;;11.05;42.18;101332.72;3585079;32;20596;-46
2021/04/03 10:22:39;;;;;;;2.80;0.65;;;;;;;10.91;42.32;101339.94;3585818;32;20064;-46
2021/04/03 10:25:06;;;;;;;2.67;0.70;;;;;;;10.49;43.82;101333.25;3585660;32;20079;-47
2021/04/03 10:27:33;;;;;;;1.23;0.77;;;;;;;9.82;44.17;101336.69;3589564;32;20068;-46
2021/04/03 10:29:59;;;;;;;2.58;0.70;;;;;;;10.13;44.09;101343.88;3589183;32;20133;-47
2021/04/03 10:32:26;;;;;;;1.08;0.70;;;;;;;10.48;43.37;101339.22;3589419;32;20072;-44
2021/04/03 10:34:53;;;;;;;2.40;0.70;;;;;;;10.63;43.50;101339.75;3587726;32;20067;-44
2021/04/03 10:37:19;;;;;;;2.15;0.90;;;;;;;11.48;42.10;101337.56;3588995;32;20064;-48
2021/04/03 10:39:45;;;;;;;1.67;0.70;;;;;;;11.36;42.22;101342.28;3591052;32;20143;-47
2021/04/03 10:42:13;;;;;;;4.25;0.98;;;;;;;11.45;42.79;101346.84;3590816;32;20067;-43
2021/04/03 10:44:40;;;;;;;2.58;0.88;;;;;;;11.03;42.18;101339.47;3592213;32;20056;-47
2021/04/03 10:47:07;;;;;;;2.05;0.90;;;;;;;11.24;40.46;101334.19;3591643;32;20297;-44
2021/04/03 10:49:34;;;;;;;2.15;0.73;;;;;;;11.10;39.37;101343.13;3591818;32;20060;-47
2021/04/03 10:52:01;;;;;;;0.90;0.50;;;;;;;11.15;36.81;101342.44;3591781;32;20196;-43
2021/04/03 10:54:28;;;;;;;6.38;4.80;;;;;;;10.43;37.00;101339.91;3591225;32;20079;-43
2021/04/03 10:56:54;;;;;;;2.78;1.35;;;;;;;10.78;37.34;101335.19;3584182;32;20068;-43
2021/04/03 10:59:23;;;;;;;22.42;17.67;;;;;;;10.75;37.55;101341.88;3579621;32;20661;-44
2021/04/03 11:01:52;;;;;;;1.30;0.85;;;;;;;10.54;38.13;101336.84;3588574;32;20079;-48
2021/04/03 11:04:19;;;;;;;19.75;17.90;;;;;;;10.18;39.13;101344.91;3590907;32;20067;-44
2021/04/03 11:06:46;;;;;;;11.00;7.70;;;;;;;10.40;41.11;101347.50;3591122;32;20452;-43
2021/04/03 11:09:12;;;;;;;1.20;0.60;;;;;;;10.56;40.39;101346.34;3591676;32;20067;-45
2021/04/03 11:11:39;;;;;;;0.88;0.43;;;;;;;11.12;39.94;101352.59;3590277;32;20056;-43
2021/04/03 11:14:05;;;;;;;0.98;0.55;;;;;;;11.44;39.38;101353.66;3591383;32;20079;-43
2021/04/03 11:16:32;;;;;;;1.58;0.50;;;;;;;12.62;38.07;101357.28;3590837;32;20103;-44
2021/04/03 11:18:58;;;;;;;1.83;0.45;;;;;;;13.47;35.80;101353.56;3590342;32;20071;-43
2021/04/03 11:21:25;;;;;;;1.10;0.50;;;;;;;13.03;34.80;101349.81;3590466;32;20075;-46
2021/04/03 11:23:51;;;;;;;2.83;0.85;;;;;;;12.28;36.14;101352.88;3590592;32;20064;-44
2021/04/03 11:26:18;;;;;;;1.15;0.50;;;;;;;12.40;36.71;101357.50;3590710;32;20064;-47
2021/04/03 11:28:44;;;;;;;3.38;0.60;;;;;;;10.88;39.47;101357.75;3580507;32;20056;-44
2021/04/03 11:31:11;;;;;;;2.35;0.70;;;;;;;11.11;37.96;101362.81;3590595;32;20102;-43
2021/04/03 11:33:38;;;;;;;0.70;0.60;;;;;;;10.69;36.74;101356.22;3590828;32;20056;-44
2021/04/03 11:36:05;;;;;;;2.60;0.73;;;;;;;10.93;36.35;101347.66;3590494;32;20413;-44
2021/04/03 11:38:31;;;;;;;1.20;0.50;;;;;;;11.37;34.83;101358.53;3590556;32;20065;-44